Search for airport 
image banner adimage banner adimage banner ad
image banner ad

PN68 - Jackson

Located in New Galilee, United States

ICAO - PN68, IATA -

Data provided by Airmate  

General information

Coordinates: N40°53'49" W80°22'4"
Elevation is 930 feet MSL.
Magnetic variation is -07° East
View others Airports in Pennsylvania

Operational data

Special qualification required
Current time UTC:
Current local time:
Weather at : KBVI - Beaver County ( 14 km )
METAR: KBVI 132115Z AUTO 03007G30KT 3/4SM +TSRA BKN009 BKN024 OVC035 21/18 A2985 RMK AO2 LTG DSNT ALQS T02080176
TAF: KBVI 132121Z 1321/1418 35009KT P6SM VCTS BKN050CB TEMPO 1321/1322 1/2SM -TSRA OVC010CB FM132300 32004KT P6SM SCT070 FM141500 26007KT P6SM SCT060
View NOTAMs / SUP AIP / TFR affecting this airport [VIEW]
Communications frequencies: [VIEW]

Runways:

RWY identifierQFULength (ft)Width (ft)SurfaceLDA (ft)
181200100GRASS
361200100GRASS

Airport contact information

Address: New Galilee United States

Satellite view of PN68